PHWJK EHEH-EHRD
Flight info
| Callsign | PHWJK |
|---|---|
| Flight time | 1h 4m |
| Altitude | 4000 |
| Route | INKET |
| Aircraft | DA40/L-SDGRY/S |
Departure
| Time | 2026-05-04 16:06 |
|---|---|
| Airport | Eindhoven Airport (EHEH) |
Arrival
| Time | 2026-05-04 17:10 |
|---|---|
| Airport | Rotterdam The Hague Airport (EHRD) |
| Time | Latitude | Longitude | Altitude | Speed | Heading |
|---|---|---|---|---|---|
| 2026-05-04 15:47 | 51.45758 | 5.37728 | 65 ft | 0 kts | 55° |
| 2026-05-04 15:59 | 51.45766 | 5.37758 | 68 ft | 6 kts | 73° |
| 2026-05-04 15:59 | 51.45801 | 5.37835 | 68 ft | 11 kts | 38° |
| 2026-05-04 16:00 | 51.45859 | 5.37929 | 64 ft | 6 kts | 97° |
| 2026-05-04 16:00 | 51.45840 | 5.37973 | 68 ft | 7 kts | 127° |
| 2026-05-04 16:00 | 51.45817 | 5.38060 | 67 ft | 7 kts | 73° |
| 2026-05-04 16:00 | 51.45855 | 5.38121 | 65 ft | 10 kts | 36° |
| 2026-05-04 16:01 | 51.45929 | 5.38204 | 62 ft | 14 kts | 28° |
| 2026-05-04 16:01 | 51.45984 | 5.38267 | 69 ft | 4 kts | 59° |
| 2026-05-04 16:01 | 51.45994 | 5.38300 | 65 ft | 3 kts | 75° |
| 2026-05-04 16:01 | 51.45992 | 5.38331 | 69 ft | 0 kts | 122° |
| 2026-05-04 16:04 | 51.45985 | 5.38350 | 69 ft | 7 kts | 121° |
| 2026-05-04 16:04 | 51.45935 | 5.38451 | 71 ft | 13 kts | 153° |
| 2026-05-04 16:05 | 51.45877 | 5.38423 | 69 ft | 25 kts | 212° |
| 2026-05-04 16:05 | 51.45583 | 5.38087 | 71 ft | 76 kts | 215° |
| 2026-05-04 16:05 | 51.44388 | 5.36810 | 476 ft | 91 kts | 215° |
| 2026-05-04 16:06 | 51.43875 | 5.36229 | 748 ft | 88 kts | 216° |
| 2026-05-04 16:06 | 51.42797 | 5.34364 | 1438 ft | 87 kts | 247° |
| 2026-05-04 16:07 | 51.42658 | 5.33423 | 1694 ft | 88 kts | 268° |
| 2026-05-04 16:07 | 51.43498 | 5.30460 | 2577 ft | 89 kts | 294° |
| 2026-05-04 16:08 | 51.43770 | 5.29566 | 2883 ft | 89 kts | 293° |
| 2026-05-04 16:08 | 51.44491 | 5.27158 | 3702 ft | 90 kts | 295° |
| 2026-05-04 16:09 | 51.45075 | 5.25189 | 4005 ft | 115 kts | 296° |
| 2026-05-04 16:09 | 51.45838 | 5.22652 | 3997 ft | 133 kts | 296° |
| 2026-05-04 16:10 | 51.46624 | 5.19977 | 3993 ft | 133 kts | 296° |
| 2026-05-04 16:11 | 51.47791 | 5.15994 | 3991 ft | 132 kts | 296° |
| 2026-05-04 16:11 | 51.48181 | 5.14662 | 3992 ft | 132 kts | 297° |
| 2026-05-04 16:12 | 51.49348 | 5.10672 | 3990 ft | 131 kts | 296° |
| 2026-05-04 16:12 | 51.50507 | 5.06707 | 3992 ft | 131 kts | 296° |
| 2026-05-04 16:13 | 51.51282 | 5.04050 | 3993 ft | 131 kts | 297° |
| 2026-05-04 16:13 | 51.52053 | 5.01415 | 3994 ft | 131 kts | 297° |
| 2026-05-04 16:14 | 51.52853 | 4.98781 | 3991 ft | 131 kts | 304° |
| 2026-05-04 16:14 | 51.53920 | 4.96421 | 3993 ft | 131 kts | 307° |
| 2026-05-04 16:15 | 51.55500 | 4.92838 | 3992 ft | 130 kts | 306° |
| 2026-05-04 16:16 | 51.56539 | 4.90459 | 3993 ft | 131 kts | 306° |
| 2026-05-04 16:16 | 51.58120 | 4.86835 | 3993 ft | 132 kts | 306° |
| 2026-05-04 16:17 | 51.59171 | 4.84424 | 3993 ft | 131 kts | 306° |
| 2026-05-04 16:18 | 51.60751 | 4.80795 | 3992 ft | 133 kts | 305° |
| 2026-05-04 16:18 | 51.61282 | 4.79573 | 3991 ft | 134 kts | 305° |
| 2026-05-04 16:19 | 51.62847 | 4.75979 | 3991 ft | 126 kts | 306° |
| 2026-05-04 16:19 | 51.63832 | 4.73714 | 3990 ft | 122 kts | 305° |
| 2026-05-04 16:20 | 51.65281 | 4.70369 | 3990 ft | 121 kts | 305° |
| 2026-05-04 16:20 | 51.66246 | 4.68141 | 3984 ft | 121 kts | 305° |
| 2026-05-04 16:21 | 51.67684 | 4.64818 | 3984 ft | 121 kts | 305° |
| 2026-05-04 16:22 | 51.68646 | 4.62592 | 3984 ft | 121 kts | 305° |
| 2026-05-04 16:22 | 51.70087 | 4.59254 | 3985 ft | 121 kts | 305° |
| 2026-05-04 16:23 | 51.71287 | 4.55779 | 3982 ft | 121 kts | 306° |
| 2026-05-04 16:24 | 51.73296 | 4.51462 | 3988 ft | 121 kts | 305° |
| 2026-05-04 16:25 | 51.74264 | 4.49243 | 3988 ft | 121 kts | 305° |
| 2026-05-04 16:26 | 51.76194 | 4.44797 | 3990 ft | 121 kts | 305° |
| 2026-05-04 16:26 | 51.77633 | 4.41478 | 3991 ft | 121 kts | 305° |
| 2026-05-04 16:27 | 51.78596 | 4.39253 | 3991 ft | 121 kts | 305° |
| 2026-05-04 16:28 | 51.80040 | 4.35914 | 3990 ft | 121 kts | 305° |
| 2026-05-04 16:28 | 51.81477 | 4.32587 | 3990 ft | 121 kts | 305° |
| 2026-05-04 16:29 | 51.83463 | 4.27997 | 3502 ft | 129 kts | 306° |
| 2026-05-04 16:30 | 51.85423 | 4.25549 | 2891 ft | 128 kts | 14° |
| 2026-05-04 16:31 | 51.86979 | 4.26852 | 2519 ft | 126 kts | 27° |
| 2026-05-04 16:31 | 51.89284 | 4.28783 | 2032 ft | 117 kts | 24° |
| 2026-05-04 16:32 | 51.91216 | 4.30495 | 2024 ft | 99 kts | 26° |
| 2026-05-04 16:33 | 51.92417 | 4.31503 | 2012 ft | 96 kts | 24° |
| 2026-05-04 16:33 | 51.93123 | 4.33341 | 1870 ft | 97 kts | 73° |
| 2026-05-04 16:34 | 51.93257 | 4.35331 | 1637 ft | 82 kts | 81° |
| 2026-05-04 16:34 | 51.93273 | 4.36263 | 1422 ft | 83 kts | 84° |
| 2026-05-04 16:35 | 51.93613 | 4.38636 | 650 ft | 69 kts | 49° |
| 2026-05-04 16:35 | 51.94372 | 4.40664 | 390 ft | 71 kts | 45° |
| 2026-05-04 16:36 | 51.94651 | 4.41385 | 279 ft | 80 kts | 49° |
| 2026-05-04 16:36 | 51.95216 | 4.42846 | 54 ft | 75 kts | 50° |
| 2026-05-04 16:37 | 51.95712 | 4.44032 | -5 ft | 54 kts | 58° |
| 2026-05-04 16:37 | 51.95934 | 4.44623 | 69 ft | 66 kts | 48° |
| 2026-05-04 16:37 | 51.96510 | 4.44787 | 360 ft | 67 kts | 282° |
| 2026-05-04 16:38 | 51.95920 | 4.43346 | 552 ft | 90 kts | 236° |
| 2026-05-04 16:39 | 51.94647 | 4.40926 | 601 ft | 90 kts | 221° |
| 2026-05-04 16:39 | 51.94644 | 4.41807 | 273 ft | 86 kts | 22° |
| 2026-05-04 16:40 | 51.95380 | 4.43250 | 5 ft | 73 kts | 50° |
| 2026-05-04 16:40 | 51.95797 | 4.44310 | -7 ft | 57 kts | 55° |
| 2026-05-04 16:41 | 51.96383 | 4.45737 | 307 ft | 84 kts | 43° |
| 2026-05-04 16:41 | 51.96317 | 4.43489 | 536 ft | 122 kts | 236° |
| 2026-05-04 16:42 | 51.94591 | 4.41263 | 477 ft | 105 kts | 114° |
| 2026-05-04 16:43 | 51.95149 | 4.42679 | 52 ft | 66 kts | 49° |
| 2026-05-04 16:43 | 51.95639 | 4.43884 | -6 ft | 55 kts | 57° |
| 2026-05-04 16:43 | 51.95869 | 4.44483 | 31 ft | 66 kts | 49° |
| 2026-05-04 16:44 | 51.96931 | 4.44972 | 544 ft | 77 kts | 278° |
| 2026-05-04 16:45 | 51.96137 | 4.43030 | 506 ft | 124 kts | 249° |
| 2026-05-04 16:46 | 51.94544 | 4.40187 | 517 ft | 125 kts | 148° |
| 2026-05-04 16:46 | 51.94823 | 4.41832 | 190 ft | 69 kts | 42° |
| 2026-05-04 16:47 | 51.95356 | 4.43187 | 9 ft | 69 kts | 51° |
| 2026-05-04 16:47 | 51.95850 | 4.44412 | 74 ft | 78 kts | 48° |
| 2026-05-04 16:48 | 51.96976 | 4.44934 | 563 ft | 85 kts | 291° |
| 2026-05-04 16:48 | 51.96998 | 4.43952 | 758 ft | 85 kts | 278° |
| 2026-05-04 16:49 | 51.97111 | 4.42009 | 1032 ft | 95 kts | 285° |
| 2026-05-04 16:49 | 51.97377 | 4.39738 | 960 ft | 102 kts | 291° |
| 2026-05-04 16:50 | 51.97706 | 4.37572 | 928 ft | 99 kts | 285° |
| 2026-05-04 16:50 | 51.97921 | 4.35380 | 998 ft | 105 kts | 282° |
| 2026-05-04 16:51 | 51.98020 | 4.33018 | 986 ft | 105 kts | 272° |
| 2026-05-04 16:51 | 51.97940 | 4.31803 | 957 ft | 111 kts | 265° |
| 2026-05-04 16:51 | 51.97579 | 4.29309 | 957 ft | 115 kts | 262° |
| 2026-05-04 16:52 | 51.97247 | 4.26758 | 992 ft | 116 kts | 266° |
| 2026-05-04 16:52 | 51.97204 | 4.25468 | 1027 ft | 114 kts | 275° |
| 2026-05-04 16:53 | 51.97284 | 4.22873 | 1066 ft | 117 kts | 276° |
| 2026-05-04 16:53 | 51.97186 | 4.18929 | 1078 ft | 122 kts | 273° |
| 2026-05-04 16:54 | 51.97263 | 4.17595 | 1021 ft | 111 kts | 310° |
| 2026-05-04 16:55 | 51.98786 | 4.20740 | 887 ft | 117 kts | 72° |
| 2026-05-04 16:55 | 51.99920 | 4.21411 | 985 ft | 102 kts | 308° |
| 2026-05-04 16:56 | 51.99091 | 4.20678 | 1008 ft | 114 kts | 111° |
| 2026-05-04 16:56 | 52.00563 | 4.20219 | 888 ft | 112 kts | 326° |
| 2026-05-04 16:57 | 52.01214 | 4.19520 | 829 ft | 115 kts | 329° |
| 2026-05-04 16:57 | 52.02459 | 4.18169 | 897 ft | 100 kts | 329° |
| 2026-05-04 16:58 | 52.02376 | 4.15968 | 974 ft | 120 kts | 158° |
| 2026-05-04 16:58 | 52.02068 | 4.16992 | 995 ft | 103 kts | 60° |
| 2026-05-04 16:59 | 52.03157 | 4.17846 | 1008 ft | 109 kts | 81° |
| 2026-05-04 17:00 | 52.01259 | 4.16433 | 881 ft | 75 kts | 240° |
| 2026-05-04 17:00 | 52.00229 | 4.14143 | 1440 ft | 31 kts | 244° |
| 2026-05-04 17:01 | 52.00028 | 4.12413 | 1197 ft | 105 kts | 223° |
| 2026-05-04 17:01 | 51.99346 | 4.11132 | 1048 ft | 99 kts | 227° |
| 2026-05-04 17:02 | 51.98325 | 4.10941 | 1112 ft | 106 kts | 149° |
| 2026-05-04 17:02 | 51.97276 | 4.12551 | 1098 ft | 111 kts | 137° |
| 2026-05-04 17:03 | 51.96952 | 4.13642 | 1035 ft | 110 kts | 95° |
| 2026-05-04 17:03 | 51.96843 | 4.14845 | 1014 ft | 107 kts | 90° |
| 2026-05-04 17:03 | 51.96773 | 4.17228 | 994 ft | 105 kts | 82° |
| 2026-05-04 17:04 | 51.96969 | 4.19555 | 1010 ft | 103 kts | 72° |
| 2026-05-04 17:04 | 51.97219 | 4.21852 | 1007 ft | 106 kts | 76° |
| 2026-05-04 17:05 | 51.97244 | 4.24318 | 983 ft | 112 kts | 88° |
| 2026-05-04 17:05 | 51.97125 | 4.26892 | 979 ft | 116 kts | 90° |
| 2026-05-04 17:06 | 51.96959 | 4.29493 | 945 ft | 117 kts | 85° |
| 2026-05-04 17:06 | 51.96900 | 4.30806 | 921 ft | 114 kts | 88° |
| 2026-05-04 17:07 | 51.96846 | 4.33226 | 1006 ft | 106 kts | 87° |
| 2026-05-04 17:07 | 51.96812 | 4.34026 | 977 ft | 108 kts | 84° |
| 2026-05-04 17:07 | 51.96821 | 4.35620 | 936 ft | 104 kts | 83° |
| 2026-05-04 17:07 | 51.96741 | 4.36801 | 814 ft | 115 kts | 114° |
| 2026-05-04 17:08 | 51.96138 | 4.37717 | 753 ft | 122 kts | 148° |
| 2026-05-04 17:08 | 51.94648 | 4.39132 | 599 ft | 118 kts | 148° |
| 2026-05-04 17:08 | 51.94124 | 4.39952 | 526 ft | 103 kts | 98° |
| 2026-05-04 17:09 | 51.94387 | 4.40941 | 427 ft | 96 kts | 41° |
| 2026-05-04 17:09 | 51.94773 | 4.41709 | 246 ft | 75 kts | 51° |
| 2026-05-04 17:09 | 51.95022 | 4.42365 | 120 ft | 61 kts | 42° |
| 2026-05-04 17:10 | 51.95473 | 4.43472 | -7 ft | 51 kts | 54° |
| 2026-05-04 17:10 | 51.95799 | 4.44310 | -7 ft | 30 kts | 61° |
| 2026-05-04 17:11 | 51.95900 | 4.44596 | -8 ft | 16 kts | 73° |
| 2026-05-04 17:11 | 51.95878 | 4.44710 | -6 ft | 12 kts | 153° |
| 2026-05-04 17:11 | 51.95792 | 4.44761 | -6 ft | 7 kts | 208° |
| 2026-05-04 17:12 | 51.95735 | 4.44628 | -6 ft | 17 kts | 234° |
| 2026-05-04 17:12 | 51.95567 | 4.44212 | -5 ft | 28 kts | 237° |
| 2026-05-04 17:13 | 51.95289 | 4.43542 | -6 ft | 9 kts | 234° |
| 2026-05-04 17:14 | 51.95160 | 4.43602 | -6 ft | 12 kts | 146° |
| 2026-05-04 17:14 | 51.95057 | 4.43709 | -6 ft | 22 kts | 147° |
| 2026-05-04 17:14 | 51.94838 | 4.43831 | -6 ft | 6 kts | 236° |
| 2026-05-04 17:15 | 51.94837 | 4.43826 | -6 ft | 0 kts | 271° |